Alamos, Argentina
Current Conditions -  °F | °C
As of 10:00 AM on Thursday 18 Dec 2014 (Local Time) from SAEZ Reporting Station
Clear Clear  
Wind Chill: 79°   Ceiling: Unl
Heat Index: 81°   Visibility: 5mi
Dew Point: 64°   Wind: 3mph
Humidity: 61%   Direction: 30°NNE
Pressure: 29.83"   Gusts: NA
Location:  36.97°S, 62.38°W
Report Text: SAEZ 181300Z 03003KT 320V110 8000 NSC 26/18 Q1010
Loading
Personal Weather Stations






























Interactive Weather Map New forecast layout! Learn more

10-Day Weather Forecast

Advertisements
Track Severe Weather on mobile